Time;durP1;ratioP1;P1;durP2;ratioP2;P2;SDS_P1;SDS_P2;PMS_P1;PMS_P2;Temp;Humidity;BMP_temperature;BMP_pressure;BME280_temperature;BME280_humidity;BME280_pressure;Samples;Min_cycle;Max_cycle;Signal;HPM_P1;HPM_P2
2023/07/06 00:03:39;;;;;;;5.07;3.47;;;;;;;;;;10425310;28;20045;-78
2023/07/06 00:08:39;;;;;;;4.90;3.60;;;;;;;;;;10428850;28;20049;-78
2023/07/06 00:13:40;;;;;;;4.97;3.97;;;;;;;;;;10431445;28;20402;-77
2023/07/06 00:18:41;;;;;;;4.22;3.60;;;;;;;;;;10426155;28;20045;-76
2023/07/06 00:23:43;;;;;;;4.90;3.50;;;;;;;;;;10427502;28;20122;-75
2023/07/06 00:28:44;;;;;;;4.93;3.80;;;;;;;;;;10454990;28;20033;-75
2023/07/06 00:33:44;;;;;;;4.68;3.35;;;;;;;;;;10462947;28;20048;-76
2023/07/06 00:38:45;;;;;;;4.50;3.53;;;;;;;;;;10462702;28;20500;-74
2023/07/06 00:43:50;;;;;;;4.70;3.47;;;;;;;;;;10448694;28;20333;-76
2023/07/06 00:48:51;;;;;;;5.60;3.88;;;;;;;;;;10462907;28;20062;-74
2023/07/06 00:53:56;;;;;;;5.75;3.90;;;;;;;;;;10467232;28;20129;-75
2023/07/06 00:59:03;;;;;;;4.32;3.45;;;;;;;;;;10471729;28;20393;-75
2023/07/06 01:04:06;;;;;;;4.80;3.83;;;;;;;;;;10452867;28;20047;-76
2023/07/06 01:09:11;;;;;;;4.57;3.45;;;;;;;;;;10475682;28;20040;-74
2023/07/06 01:14:12;;;;;;;4.05;3.65;;;;;;;;;;10483583;28;20037;-74
2023/07/06 01:19:23;;;;;;;4.75;3.80;;;;;;;;;;10463152;28;20036;-79
2023/07/06 01:24:26;;;;;;;5.78;3.88;;;;;;;;;;10467595;28;20028;-74
2023/07/06 01:29:39;;;;;;;4.00;3.58;;;;;;;;;;10425099;28;20037;-74
2023/07/06 01:34:54;;;;;;;6.37;4.13;;;;;;;;;;10402735;28;20049;-76
2023/07/06 01:39:57;;;;;;;5.57;3.67;;;;;;;;;;10424190;28;20037;-75
2023/07/06 01:45:02;;;;;;;3.97;3.50;;;;;;;;;;10425761;28;20029;-74
2023/07/06 01:50:03;;;;;;;5.15;4.18;;;;;;;;;;10412185;28;20086;-75
2023/07/06 01:55:09;;;;;;;5.28;4.13;;;;;;;;;;10428023;28;20664;-74
2023/07/06 02:00:12;;;;;;;6.45;4.00;;;;;;;;;;10431113;28;20032;-74
2023/07/06 02:05:17;;;;;;;5.45;4.30;;;;;;;;;;10425449;28;20141;-76
2023/07/06 02:10:18;;;;;;;5.90;4.15;;;;;;;;;;10427062;28;20098;-74
2023/07/06 02:15:19;;;;;;;4.50;3.88;;;;;;;;;;10410907;28;20053;-77
2023/07/06 02:20:19;;;;;;;5.30;3.92;;;;;;;;;;10426665;28;20405;-77
2023/07/06 02:25:20;;;;;;;5.70;4.03;;;;;;;;;;10412156;28;20108;-76
2023/07/06 02:30:20;;;;;;;4.82;3.95;;;;;;;;;;10442108;28;20325;-79
2023/07/06 02:35:21;;;;;;;7.00;4.82;;;;;;;;;;10465025;28;20072;-75
2023/07/06 02:40:22;;;;;;;7.30;4.25;;;;;;;;;;10468960;28;20082;-75
2023/07/06 02:45:23;;;;;;;4.97;3.97;;;;;;;;;;10459770;28;20028;-78
2023/07/06 02:50:24;;;;;;;6.97;4.47;;;;;;;;;;10446478;28;20056;-78
2023/07/06 02:55:27;;;;;;;5.40;4.18;;;;;;;;;;10470532;28;20044;-78
2023/07/06 03:00:29;;;;;;;;;;;;;;;;;;10471595;28;20059;-77
2023/07/06 03:05:30;;;;;;;5.22;4.70;;;;;;;;;;10464163;28;19916;-79
2023/07/06 03:10:31;;;;;;;4.28;3.83;;;;;;;;;;10464925;28;20036;-75
2023/07/06 03:15:31;;;;;;;3.88;3.45;;;;;;;;;;10461300;28;20044;-77
2023/07/06 03:20:35;;;;;;;6.82;4.80;;;;;;;;;;10445416;28;20040;-78
2023/07/06 03:25:38;;;;;;;5.47;4.38;;;;;;;;;;10440303;28;20047;-77
2023/07/06 03:30:39;;;;;;;4.95;4.30;;;;;;;;;;10430550;28;20044;-74
2023/07/06 03:35:40;;;;;;;5.20;4.57;;;;;;;;;;10460407;28;20056;-75
2023/07/06 03:40:40;;;;;;;6.50;4.47;;;;;;;;;;10457841;28;20128;-76
2023/07/06 03:45:40;;;;;;;6.07;4.80;;;;;;;;;;10463299;28;20052;-75
2023/07/06 03:50:41;;;;;;;5.47;4.53;;;;;;;;;;10464992;28;20368;-75
2023/07/06 03:55:41;;;;;;;7.28;4.63;;;;;;;;;;10463888;28;20059;-72
2023/07/06 04:00:42;;;;;;;6.43;4.73;;;;;;;;;;10447332;28;20041;-73
2023/07/06 04:05:47;;;;;;;4.95;4.30;;;;;;;;;;10462204;28;20045;-73
2023/07/06 04:10:48;;;;;;;5.45;4.50;;;;;;;;;;10425839;28;20067;-73
2023/07/06 04:15:51;;;;;;;5.38;4.47;;;;;;;;;;10439359;28;20048;-74
2023/07/06 04:20:55;;;;;;;6.60;4.65;;;;;;;;;;10463526;28;20080;-75
2023/07/06 04:25:55;;;;;;;;;;;;;;;;;;10460703;28;20033;-76
2023/07/06 04:30:55;;;;;;;6.78;4.80;;;;;;;;;;10472174;28;19916;-81
2023/07/06 04:35:56;;;;;;;5.77;4.53;;;;;;;;;;10476845;28;20049;-82
2023/07/06 04:40:56;;;;;;;4.30;3.87;;;;;;;;;;10485908;28;20371;-84
2023/07/06 04:45:57;;;;;;;6.70;4.43;;;;;;;;;;10492169;28;20289;-85
2023/07/06 04:51:03;;;;;;;7.85;5.20;;;;;;;;;;10466786;28;20032;-85
2023/07/06 04:56:04;;;;;;;5.38;4.10;;;;;;;;;;10473190;28;20051;-83
2023/07/06 05:01:07;;;;;;;6.65;4.65;;;;;;;;;;10473598;28;20309;-81
2023/07/06 05:06:12;;;;;;;5.60;4.40;;;;;;;;;;10498915;28;20049;-80
2023/07/06 05:11:13;;;;;;;5.97;4.28;;;;;;;;;;10500741;28;20044;-79
2023/07/06 05:16:15;;;;;;;4.57;4.03;;;;;;;;;;10516823;28;20048;-79
2023/07/06 05:21:15;;;;;;;5.07;4.57;;;;;;;;;;10512500;28;20032;-82
2023/07/06 05:26:17;;;;;;;6.45;4.78;;;;;;;;;;10519110;28;20063;-78
2023/07/06 05:31:17;;;;;;;4.88;4.28;;;;;;;;;;10518010;28;20028;-79
2023/07/06 05:36:18;;;;;;;6.57;4.60;;;;;;;;;;10534946;28;20043;-80
2023/07/06 05:41:18;;;;;;;5.95;3.88;;;;;;;;;;10524418;28;20036;-78
2023/07/06 05:46:19;;;;;;;5.38;4.50;;;;;;;;;;10528274;28;20032;-76
2023/07/06 05:51:19;;;;;;;5.07;3.95;;;;;;;;;;10523288;28;20725;-75
2023/07/06 05:56:23;;;;;;;5.93;4.10;;;;;;;;;;10516990;28;20047;-76
2023/07/06 06:01:23;;;;;;;6.97;4.68;;;;;;;;;;10516267;28;20104;-76
2023/07/06 06:06:26;;;;;;;4.82;4.32;;;;;;;;;;10511353;28;20028;-76
2023/07/06 06:11:27;;;;;;;;;;;;;;;;;;10490463;28;20786;-76
2023/07/06 06:16:27;;;;;;;7.88;4.82;;;;;;;;;;10508972;28;19924;-76
2023/07/06 06:21:29;;;;;;;5.37;4.40;;;;;;;;;;10505523;28;20097;-76
2023/07/06 06:26:42;;;;;;;5.28;4.15;;;;;;;;;;10502432;28;20396;-76
2023/07/06 06:31:42;;;;;;;7.35;4.57;;;;;;;;;;10506570;28;20055;-76
2023/07/06 06:36:43;;;;;;;4.97;4.40;;;;;;;;;;10505597;28;20072;-76
2023/07/06 06:41:43;;;;;;;6.75;4.10;;;;;;;;;;10492914;28;20099;-77
2023/07/06 06:46:45;;;;;;;8.75;4.20;;;;;;;;;;10507397;28;20475;-76
2023/07/06 06:51:45;;;;;;;4.60;3.42;;;;;;;;;;10509928;28;20089;-76
2023/07/06 06:56:46;;;;;;;5.13;4.07;;;;;;;;;;10487250;28;20442;-77
2023/07/06 07:01:50;;;;;;;6.53;3.95;;;;;;;;;;10504916;28;20720;-77
2023/07/06 07:06:50;;;;;;;5.05;3.53;;;;;;;;;;10488699;28;20039;-77
2023/07/06 07:11:50;;;;;;;5.40;3.77;;;;;;;;;;10518330;28;20031;-77
2023/07/06 07:16:51;;;;;;;6.47;3.97;;;;;;;;;;10506018;28;20348;-77
2023/07/06 07:21:51;;;;;;;3.60;3.00;;;;;;;;;;10489943;28;20036;-76
2023/07/06 07:26:52;;;;;;;4.70;2.70;;;;;;;;;;10506143;28;20510;-78
2023/07/06 07:31:52;;;;;;;3.97;2.58;;;;;;;;;;10482707;28;20300;-79
2023/07/06 07:36:52;;;;;;;3.73;2.40;;;;;;;;;;10472812;28;20072;-80
2023/07/06 07:41:53;;;;;;;5.33;2.67;;;;;;;;;;10506558;28;20286;-78
2023/07/06 07:46:53;;;;;;;6.20;3.03;;;;;;;;;;10508788;28;20032;-79
2023/07/06 07:51:53;;;;;;;3.63;2.90;;;;;;;;;;10502839;28;20036;-79
2023/07/06 07:56:54;;;;;;;3.27;2.90;;;;;;;;;;10508487;28;20312;-79
2023/07/06 08:01:56;;;;;;;3.80;2.45;;;;;;;;;;10485017;28;20075;-81
2023/07/06 08:06:56;;;;;;;5.43;2.88;;;;;;;;;;10514233;28;20044;-78
2023/07/06 08:11:58;;;;;;;3.90;2.30;;;;;;;;;;10503874;28;20456;-78
2023/07/06 08:16:58;;;;;;;4.47;3.10;;;;;;;;;;10496963;28;20044;-78
2023/07/06 08:22:00;;;;;;;6.03;3.30;;;;;;;;;;10478443;28;20484;-79
2023/07/06 08:27:00;;;;;;;2.70;2.50;;;;;;;;;;10476181;28;20046;-79
2023/07/06 08:32:03;;;;;;;5.47;2.60;;;;;;;;;;10473908;28;20031;-80
2023/07/06 08:37:05;;;;;;;3.90;2.63;;;;;;;;;;10486900;28;20334;-79
2023/07/06 08:42:09;;;;;;;4.65;3.03;;;;;;;;;;10478693;28;20512;-82
2023/07/06 08:47:13;;;;;;;4.80;3.20;;;;;;;;;;10478833;28;20032;-79
2023/07/06 08:52:15;;;;;;;8.40;2.78;;;;;;;;;;10465145;28;20045;-80
2023/07/06 08:57:21;;;;;;;4.83;3.13;;;;;;;;;;10488965;28;20044;-80
2023/07/06 09:02:24;;;;;;;5.10;3.05;;;;;;;;;;10489958;28;20059;-82
2023/07/06 09:07:34;;;;;;;3.53;2.85;;;;;;;;;;10485440;28;20036;-82
2023/07/06 09:12:36;;;;;;;3.95;3.17;;;;;;;;;;10485068;28;20738;-81
2023/07/06 09:17:45;;;;;;;3.83;2.90;;;;;;;;;;10446196;28;20060;-81
2023/07/06 09:22:46;;;;;;;4.38;2.95;;;;;;;;;;10489289;28;20059;-79
2023/07/06 09:27:48;;;;;;;5.78;3.45;;;;;;;;;;10481575;28;20059;-80
2023/07/06 09:32:53;;;;;;;5.97;3.10;;;;;;;;;;10481226;28;21209;-81
2023/07/06 09:37:54;;;;;;;6.35;3.05;;;;;;;;;;10459603;28;20052;-78
2023/07/06 09:42:54;;;;;;;6.22;3.28;;;;;;;;;;10466965;28;20048;-79
2023/07/06 09:47:56;;;;;;;4.20;3.13;;;;;;;;;;10481623;28;20048;-80
2023/07/06 09:52:58;;;;;;;4.63;2.90;;;;;;;;;;10484791;28;20329;-79
2023/07/06 09:57:59;;;;;;;3.10;2.28;;;;;;;;;;10480798;28;20032;-79
2023/07/06 10:03:20;;;;;;;5.18;3.05;;;;;;;;;;10504324;28;20089;-83
2023/07/06 10:08:28;;;;;;;4.40;2.60;;;;;;;;;;10492842;28;20039;-77
2023/07/06 10:13:35;;;;;;;3.10;2.75;;;;;;;;;;10490841;28;20049;-80
2023/07/06 10:18:56;;;;;;;5.22;2.85;;;;;;;;;;10453619;28;20785;-79
2023/07/06 10:24:06;;;;;;;5.82;2.67;;;;;;;;;;10476093;28;20075;-79
2023/07/06 10:29:16;;;;;;;4.93;2.80;;;;;;;;;;10474235;28;20032;-78
2023/07/06 10:34:38;;;;;;;3.83;2.50;;;;;;;;;;10484914;28;20044;-81
2023/07/06 10:39:44;;;;;;;2.95;2.63;;;;;;;;;;10471795;28;20093;-79
2023/07/06 10:44:48;;;;;;;6.50;4.05;;;;;;;;;;10475396;28;20043;-80
2023/07/06 10:50:03;;;;;;;3.80;2.53;;;;;;;;;;10483945;28;20110;-81
2023/07/06 10:55:25;;;;;;;3.55;2.40;;;;;;;;;;10484049;28;20063;-78
2023/07/06 11:00:30;;;;;;;3.33;2.40;;;;;;;;;;10476249;28;20040;-78
2023/07/06 11:05:35;;;;;;;3.63;2.38;;;;;;;;;;10477798;28;20048;-78
2023/07/06 11:10:39;;;;;;;5.53;2.58;;;;;;;;;;10457922;28;20037;-79
2023/07/06 11:15:48;;;;;;;3.45;2.35;;;;;;;;;;10471088;28;20087;-80
2023/07/06 11:20:57;;;;;;;5.82;2.95;;;;;;;;;;10474802;28;20101;-78
2023/07/06 11:25:58;;;;;;;5.38;2.30;;;;;;;;;;10455544;28;20036;-78
2023/07/06 11:31:14;;;;;;;3.10;2.50;;;;;;;;;;10473871;28;20045;-78
2023/07/06 11:36:21;;;;;;;3.80;2.25;;;;;;;;;;10472691;28;20047;-82
2023/07/06 11:41:49;;;;;;;3.35;2.30;;;;;;;;;;10477499;28;20040;-78
2023/07/06 11:47:09;;;;;;;2.75;2.30;;;;;;;;;;10456238;28;20075;-78
2023/07/06 11:52:12;;;;;;;4.07;2.38;;;;;;;;;;10463891;28;20127;-77
2023/07/06 11:57:26;;;;;;;2.85;2.00;;;;;;;;;;10478141;28;20758;-80
2023/07/06 12:02:30;;;;;;;2.50;2.10;;;;;;;;;;10481049;28;20082;-78
2023/07/06 12:07:32;;;;;;;3.42;2.30;;;;;;;;;;10476610;28;20040;-78
2023/07/06 12:12:35;;;;;;;3.55;2.67;;;;;;;;;;10485360;28;20059;-78
2023/07/06 12:17:35;;;;;;;3.28;2.08;;;;;;;;;;10454169;28;20128;-78
2023/07/06 12:22:48;;;;;;;4.07;2.30;;;;;;;;;;10472490;28;20497;-79
2023/07/06 12:27:49;;;;;;;3.65;2.08;;;;;;;;;;10470636;28;20101;-79
2023/07/06 12:32:50;;;;;;;2.80;2.13;;;;;;;;;;10451765;28;20040;-78
2023/07/06 12:37:51;;;;;;;3.80;2.15;;;;;;;;;;10474342;28;20675;-80
2023/07/06 12:42:53;;;;;;;2.60;2.20;;;;;;;;;;10475777;28;20650;-78
2023/07/06 12:47:55;;;;;;;2.47;2.20;;;;;;;;;;10463669;28;20040;-78
2023/07/06 12:52:55;;;;;;;;;;;;;;;;;;10485813;28;20044;-76
2023/07/06 12:57:56;;;;;;;4.85;2.28;;;;;;;;;;10483344;28;19931;-79
2023/07/06 13:02:58;;;;;;;2.97;2.20;;;;;;;;;;10485941;28;20042;-76
2023/07/06 13:08:08;;;;;;;6.00;2.25;;;;;;;;;;10485269;28;20032;-78
2023/07/06 13:13:19;;;;;;;4.30;2.20;;;;;;;;;;10476162;28;20036;-78
2023/07/06 13:18:19;;;;;;;4.75;2.13;;;;;;;;;;10478955;28;20045;-80
2023/07/06 13:23:20;;;;;;;2.97;2.40;;;;;;;;;;10480630;28;20036;-77
2023/07/06 13:28:20;;;;;;;3.28;2.13;;;;;;;;;;10466865;28;20036;-81
2023/07/06 13:33:21;;;;;;;3.70;1.97;;;;;;;;;;10474349;28;20060;-79
2023/07/06 13:38:28;;;;;;;2.50;2.13;;;;;;;;;;10484030;28;20067;-80
2023/07/06 13:43:28;;;;;;;4.55;2.08;;;;;;;;;;10463100;28;20040;-77
2023/07/06 13:48:29;;;;;;;5.50;2.35;;;;;;;;;;10484353;28;20032;-81
2023/07/06 13:53:33;;;;;;;3.67;2.33;;;;;;;;;;10483992;28;20131;-80
2023/07/06 13:58:36;;;;;;;3.50;2.10;;;;;;;;;;10479622;28;21115;-82
2023/07/06 14:03:37;;;;;;;3.75;2.38;;;;;;;;;;10467768;28;20043;-80
2023/07/06 14:08:37;;;;;;;2.60;1.93;;;;;;;;;;10485434;28;20047;-78
2023/07/06 14:13:39;;;;;;;4.07;2.10;;;;;;;;;;10466929;28;20059;-82
2023/07/06 14:18:40;;;;;;;3.13;1.80;;;;;;;;;;10474984;28;20044;-81
2023/07/06 14:23:41;;;;;;;4.50;2.27;;;;;;;;;;10474639;28;20049;-81
2023/07/06 14:28:41;;;;;;;2.63;2.20;;;;;;;;;;10476631;28;20041;-81
2023/07/06 14:33:45;;;;;;;3.38;2.40;;;;;;;;;;10492877;28;20113;-79
2023/07/06 14:38:46;;;;;;;2.60;1.77;;;;;;;;;;10483711;28;20483;-81
2023/07/06 14:43:48;;;;;;;;;;;;;;;;;;10465096;28;20472;-79
2023/07/06 14:48:52;;;;;;;2.90;2.13;;;;;;;;;;10464095;28;19968;-78
2023/07/06 14:53:52;;;;;;;2.83;2.22;;;;;;;;;;10462052;28;20057;-80
2023/07/06 14:58:53;;;;;;;4.87;2.33;;;;;;;;;;10459701;28;20094;-79
2023/07/06 15:03:53;;;;;;;3.13;2.10;;;;;;;;;;10483225;28;20048;-80
2023/07/06 15:08:53;;;;;;;2.93;2.13;;;;;;;;;;10488401;28;20051;-80
2023/07/06 15:13:54;;;;;;;2.50;2.03;;;;;;;;;;10499659;28;20032;-82
2023/07/06 15:18:54;;;;;;;5.20;2.10;;;;;;;;;;10485969;28;20036;-81
2023/07/06 15:23:59;;;;;;;3.30;2.17;;;;;;;;;;10493845;28;20116;-83
2023/07/06 15:28:59;;;;;;;3.03;2.25;;;;;;;;;;10481507;28;20036;-80
2023/07/06 15:34:09;;;;;;;3.75;2.03;;;;;;;;;;10481734;28;20114;-81
2023/07/06 15:39:10;;;;;;;2.95;2.30;;;;;;;;;;10481086;28;20097;-84
2023/07/06 15:44:11;;;;;;;3.63;2.03;;;;;;;;;;10484217;28;20114;-83
2023/07/06 15:49:11;;;;;;;2.47;1.93;;;;;;;;;;10464257;28;20040;-80
2023/07/06 15:54:12;;;;;;;3.30;2.13;;;;;;;;;;10472363;28;20040;-79
2023/07/06 15:59:13;;;;;;;3.97;2.37;;;;;;;;;;10476999;28;20043;-79
2023/07/06 16:04:13;;;;;;;4.50;2.60;;;;;;;;;;10453768;28;20335;-80
2023/07/06 16:09:14;;;;;;;3.07;2.13;;;;;;;;;;10481622;28;20516;-78
2023/07/06 16:14:14;;;;;;;2.53;2.27;;;;;;;;;;10479029;28;20446;-76
2023/07/06 16:19:16;;;;;;;5.03;2.10;;;;;;;;;;10474554;28;20114;-80
2023/07/06 16:24:17;;;;;;;3.15;2.30;;;;;;;;;;10474884;28;20119;-80
2023/07/06 16:29:18;;;;;;;5.22;2.33;;;;;;;;;;10482734;28;20036;-83
2023/07/06 16:34:18;;;;;;;3.03;2.30;;;;;;;;;;10486377;28;20502;-77
2023/07/06 16:39:19;;;;;;;2.60;2.30;;;;;;;;;;10467027;28;20056;-79
2023/07/06 16:44:20;;;;;;;3.35;2.50;;;;;;;;;;10489775;28;20035;-79
2023/07/06 16:49:20;;;;;;;2.63;2.10;;;;;;;;;;10490006;28;20362;-79
2023/07/06 16:54:21;;;;;;;4.93;2.10;;;;;;;;;;10494426;28;20044;-80
2023/07/06 16:59:24;;;;;;;3.23;2.13;;;;;;;;;;10491811;28;20051;-79
2023/07/06 17:04:24;;;;;;;4.35;2.50;;;;;;;;;;10488576;28;20035;-76
2023/07/06 17:09:25;;;;;;;3.42;2.50;;;;;;;;;;10478903;28;20455;-77
2023/07/06 17:14:25;;;;;;;2.30;2.00;;;;;;;;;;10475427;28;20040;-78
2023/07/06 17:19:26;;;;;;;2.47;2.25;;;;;;;;;;10475868;28;20049;-78
2023/07/06 17:24:26;;;;;;;2.53;2.27;;;;;;;;;;10477187;28;20031;-76
2023/07/06 17:29:27;;;;;;;3.30;2.10;;;;;;;;;;10486112;28;20089;-78
2023/07/06 17:34:27;;;;;;;3.67;2.00;;;;;;;;;;10478069;28;20036;-79
2023/07/06 17:39:27;;;;;;;3.35;2.25;;;;;;;;;;10478742;28;20036;-75
2023/07/06 17:44:28;;;;;;;2.83;2.27;;;;;;;;;;10487200;28;20036;-76
2023/07/06 17:49:31;;;;;;;3.13;2.13;;;;;;;;;;10491822;28;20036;-80
2023/07/06 17:54:31;;;;;;;4.93;2.50;;;;;;;;;;10492199;28;20317;-80
2023/07/06 17:59:32;;;;;;;3.70;2.80;;;;;;;;;;10462905;28;20473;-81
2023/07/06 18:04:32;;;;;;;4.43;2.40;;;;;;;;;;10485047;28;20293;-81
2023/07/06 18:09:32;;;;;;;5.13;2.50;;;;;;;;;;10475269;28;20036;-76
2023/07/06 18:14:33;;;;;;;5.07;2.10;;;;;;;;;;10479150;28;20219;-77
2023/07/06 18:19:33;;;;;;;2.97;2.27;;;;;;;;;;10476016;28;20040;-75
2023/07/06 18:24:33;;;;;;;3.30;2.40;;;;;;;;;;10483765;28;20039;-76
2023/07/06 18:29:34;;;;;;;3.67;2.43;;;;;;;;;;10476298;28;20365;-74
2023/07/06 18:34:34;;;;;;;2.57;2.13;;;;;;;;;;10479584;28;20044;-76
2023/07/06 18:39:35;;;;;;;3.17;1.90;;;;;;;;;;10479155;28;20036;-80
2023/07/06 18:44:36;;;;;;;2.85;2.40;;;;;;;;;;10483072;28;20294;-76
2023/07/06 18:49:37;;;;;;;2.90;2.23;;;;;;;;;;10460873;28;20495;-75
2023/07/06 18:54:37;;;;;;;3.20;2.58;;;;;;;;;;10489222;28;20101;-77
2023/07/06 18:59:38;;;;;;;4.17;2.50;;;;;;;;;;10485193;28;20039;-76
2023/07/06 19:04:40;;;;;;;3.30;2.60;;;;;;;;;;10474160;28;20041;-74
2023/07/06 19:09:40;;;;;;;3.22;2.40;;;;;;;;;;10476057;28;20044;-79
2023/07/06 19:14:41;;;;;;;2.92;2.47;;;;;;;;;;10475691;28;20075;-79
2023/07/06 19:19:41;;;;;;;3.63;2.80;;;;;;;;;;10468512;28;20758;-81
2023/07/06 19:24:44;;;;;;;3.35;2.58;;;;;;;;;;10462860;28;20185;-87
2023/07/06 19:29:48;;;;;;;4.07;2.80;;;;;;;;;;10496162;28;20024;-82
2023/07/06 19:34:54;;;;;;;2.58;2.38;;;;;;;;;;10488052;28;20048;-84
2023/07/06 19:39:56;;;;;;;3.80;2.70;;;;;;;;;;10485479;28;20036;-81
2023/07/06 19:44:56;;;;;;;3.45;2.42;;;;;;;;;;10481985;28;20037;-80
2023/07/06 19:49:56;;;;;;;4.00;2.80;;;;;;;;;;10475029;28;20025;-81
2023/07/06 19:54:57;;;;;;;5.53;2.67;;;;;;;;;;10484254;28;20040;-81
2023/07/06 19:59:57;;;;;;;5.00;2.53;;;;;;;;;;10495062;28;20024;-79
2023/07/06 20:04:59;;;;;;;4.90;3.00;;;;;;;;;;10477776;28;20043;-77
2023/07/06 20:09:59;;;;;;;4.32;2.88;;;;;;;;;;10483127;28;20110;-80
2023/07/06 20:15:06;;;;;;;4.55;2.95;;;;;;;;;;10450293;28;20048;-81
2023/07/06 20:20:07;;;;;;;5.07;3.22;;;;;;;;;;10470016;28;20062;-79
2023/07/06 20:25:07;;;;;;;4.75;3.20;;;;;;;;;;10473307;28;20032;-78
2023/07/06 20:30:08;;;;;;;5.60;3.10;;;;;;;;;;10454321;28;20035;-79
2023/07/06 20:35:09;;;;;;;4.15;3.10;;;;;;;;;;10462240;28;20096;-78
2023/07/06 20:40:09;;;;;;;5.35;3.40;;;;;;;;;;10480303;28;20046;-78
2023/07/06 20:45:10;;;;;;;4.40;3.15;;;;;;;;;;10478624;28;20098;-78
2023/07/06 20:50:10;;;;;;;4.30;3.63;;;;;;;;;;10475645;28;20033;-81
2023/07/06 20:55:10;;;;;;;3.80;3.10;;;;;;;;;;10481835;28;20094;-79
2023/07/06 21:00:11;;;;;;;5.13;4.43;;;;;;;;;;10474622;28;20045;-80
2023/07/06 21:05:12;;;;;;;5.88;4.18;;;;;;;;;;10476442;28;20033;-80
2023/07/06 21:10:13;;;;;;;5.80;4.03;;;;;;;;;;10481797;28;20089;-79
2023/07/06 21:15:13;;;;;;;6.80;4.03;;;;;;;;;;10481140;28;20044;-78
2023/07/06 21:20:14;;;;;;;4.68;4.10;;;;;;;;;;10485258;28;20041;-78
2023/07/06 21:25:15;;;;;;;7.22;4.32;;;;;;;;;;10490371;28;20108;-79
2023/07/06 21:30:15;;;;;;;6.00;4.78;;;;;;;;;;10494920;28;20027;-80
2023/07/06 21:35:15;;;;;;;6.17;4.80;;;;;;;;;;10484741;28;20470;-80
2023/07/06 21:40:16;;;;;;;7.18;5.20;;;;;;;;;;10487829;28;20377;-80
2023/07/06 21:45:16;;;;;;;5.63;4.65;;;;;;;;;;10462460;28;20035;-80
2023/07/06 21:50:17;;;;;;;6.60;5.00;;;;;;;;;;10492185;28;20032;-81
2023/07/06 21:55:19;;;;;;;6.87;4.97;;;;;;;;;;10502510;28;20298;-82
2023/07/06 22:00:19;;;;;;;5.83;4.93;;;;;;;;;;10489583;28;20298;-81
2023/07/06 22:05:21;;;;;;;7.17;5.13;;;;;;;;;;10478391;28;20712;-80
2023/07/06 22:10:22;;;;;;;6.15;4.65;;;;;;;;;;10478057;28;20032;-79
2023/07/06 22:15:23;;;;;;;6.43;4.95;;;;;;;;;;10471558;28;20044;-79
2023/07/06 22:20:23;;;;;;;6.63;4.65;;;;;;;;;;10436500;28;20059;-80
2023/07/06 22:25:24;;;;;;;4.07;3.60;;;;;;;;;;10475329;28;20052;-82
2023/07/06 22:30:24;;;;;;;6.72;4.50;;;;;;;;;;10482457;28;20123;-79
2023/07/06 22:35:25;;;;;;;5.23;4.20;;;;;;;;;;10456817;28;20039;-79
2023/07/06 22:40:29;;;;;;;9.10;4.33;;;;;;;;;;10481050;28;20413;-80
2023/07/06 22:45:30;;;;;;;4.10;3.53;;;;;;;;;;10483700;28;20114;-80
2023/07/06 22:50:33;;;;;;;5.15;3.75;;;;;;;;;;10472589;28;20044;-80
2023/07/06 22:55:34;;;;;;;4.47;3.70;;;;;;;;;;10479177;28;20672;-77
2023/07/06 23:00:36;;;;;;;4.55;4.15;;;;;;;;;;10477064;28;20032;-80
2023/07/06 23:05:36;;;;;;;4.63;3.70;;;;;;;;;;10475997;28;20493;-79
2023/07/06 23:10:41;;;;;;;5.40;3.80;;;;;;;;;;10475014;28;20036;-77
2023/07/06 23:15:43;;;;;;;4.70;4.10;;;;;;;;;;10471675;28;20107;-79
2023/07/06 23:20:43;;;;;;;6.15;4.22;;;;;;;;;;10492270;28;20098;-83
2023/07/06 23:25:46;;;;;;;5.20;4.37;;;;;;;;;;10470411;28;20118;-80
2023/07/06 23:30:49;;;;;;;4.63;4.20;;;;;;;;;;10475463;28;20435;-78
2023/07/06 23:35:50;;;;;;;6.57;4.57;;;;;;;;;;10479693;28;20080;-78
2023/07/06 23:40:50;;;;;;;7.32;4.55;;;;;;;;;;10477176;28;20036;-80
2023/07/06 23:45:51;;;;;;;5.18;3.95;;;;;;;;;;10480990;28;20040;-78
2023/07/06 23:50:51;;;;;;;5.73;4.27;;;;;;;;;;10455291;28;20673;-78
2023/07/06 23:55:52;;;;;;;6.22;4.63;;;;;;;;;;10475670;28;20048;-78
